createdAt,value
2022-08-21T00:00:14.622Z,26.06
2022-08-21T00:05:41.220Z,25.26
2022-08-21T00:10:45.629Z,24.79
2022-08-21T00:15:49.939Z,25.41
2022-08-21T00:20:53.563Z,27.71
2022-08-21T00:25:56.517Z,27.43
2022-08-21T00:30:59.782Z,26.16
2022-08-21T00:36:03.509Z,25.41
2022-08-21T00:41:32.229Z,24.88
2022-08-21T00:46:32.881Z,25.62
2022-08-21T00:51:51.242Z,27.15
2022-08-21T00:57:00.780Z,25.94
2022-08-21T01:02:06.452Z,25.11
2022-08-21T01:07:10.009Z,24.59
2022-08-21T01:12:13.835Z,25.24
2022-08-21T01:17:18.806Z,27.50
2022-08-21T01:22:21.673Z,27.86
2022-08-21T01:27:24.548Z,26.48
2022-08-21T01:32:27.744Z,25.53
2022-08-21T01:37:30.817Z,24.93
2022-08-21T01:42:35.024Z,24.45
2022-08-21T01:47:38.675Z,25.16
2022-08-21T01:52:41.705Z,27.41
2022-08-21T01:57:46.113Z,27.66
2022-08-21T02:02:49.000Z,26.28
2022-08-21T02:07:54.118Z,25.43
2022-08-21T02:12:58.044Z,24.83
2022-08-21T02:18:03.058Z,25.42
2022-08-21T02:23:07.403Z,27.63
2022-08-21T02:28:13.681Z,27.22
2022-08-21T02:33:17.152Z,25.95
2022-08-21T02:38:23.784Z,25.18
2022-08-21T02:43:28.309Z,24.61
2022-08-21T02:48:33.080Z,25.24
2022-08-21T02:53:36.852Z,27.51
2022-08-21T02:58:46.483Z,27.39
2022-08-21T03:03:52.199Z,26.01
2022-08-21T03:08:55.327Z,25.20
2022-08-21T03:13:58.201Z,24.63
2022-08-21T03:19:01.043Z,25.21
2022-08-21T03:24:05.341Z,27.43
2022-08-21T03:29:09.852Z,27.41
2022-08-21T03:34:12.781Z,26.06
2022-08-21T03:39:17.706Z,25.25
2022-08-21T03:44:20.837Z,24.68
2022-08-21T03:49:23.857Z,25.26
2022-08-21T03:54:28.829Z,27.50
2022-08-21T03:59:31.909Z,27.50
2022-08-21T04:04:35.318Z,26.12
2022-08-21T04:09:38.592Z,25.30
2022-08-21T04:14:42.898Z,24.74
2022-08-21T04:19:49.317Z,25.33
2022-08-21T04:24:54.584Z,27.56
2022-08-21T04:29:57.652Z,27.25
2022-08-21T04:35:02.470Z,25.95
2022-08-21T04:40:06.656Z,25.18
2022-08-21T04:45:10.826Z,24.64
2022-08-21T04:50:13.726Z,25.30
2022-08-21T04:55:20.187Z,27.60
2022-08-21T05:00:25.567Z,27.48
2022-08-21T05:05:30.375Z,26.15
2022-08-21T05:10:33.749Z,25.34
2022-08-21T05:15:36.604Z,24.77
2022-08-21T05:20:39.660Z,25.39
2022-08-21T05:25:42.757Z,27.68
2022-08-21T05:30:46.092Z,27.63
2022-08-21T05:35:53.011Z,26.30
2022-08-21T05:40:56.291Z,25.53
2022-08-21T05:45:59.486Z,25.01
2022-08-21T05:51:07.852Z,25.71
2022-08-21T05:56:12.356Z,27.99
2022-08-21T06:01:16.937Z,27.70
2022-08-21T06:06:20.046Z,26.45
2022-08-21T06:11:26.995Z,25.72
2022-08-21T06:16:31.879Z,25.19
2022-08-21T06:21:34.808Z,25.86
2022-08-21T06:26:38.132Z,28.09
2022-08-21T06:31:41.969Z,27.64
2022-08-21T06:36:45.376Z,26.49
2022-08-21T06:41:48.805Z,25.80
2022-08-21T06:46:51.712Z,25.32
2022-08-21T06:51:55.132Z,26.07
2022-08-21T06:56:58.140Z,28.29
2022-08-21T07:02:01.686Z,27.67
2022-08-21T07:07:04.714Z,26.60
2022-08-21T07:12:08.170Z,25.96
2022-08-21T07:17:11.150Z,25.51
2022-08-21T07:22:19.224Z,26.26
2022-08-21T07:27:22.498Z,28.48
2022-08-21T07:32:25.793Z,28.22
2022-08-21T07:37:28.760Z,26.99
2022-08-21T07:42:33.125Z,26.27
2022-08-21T07:47:42.571Z,25.74
2022-08-21T07:52:46.807Z,26.40
2022-08-21T07:57:50.418Z,28.00
2022-08-21T08:02:55.193Z,26.96
2022-08-21T08:07:58.262Z,26.22
2022-08-21T08:13:01.624Z,25.76
2022-08-21T08:18:05.217Z,26.53
2022-08-21T08:23:11.677Z,28.14
2022-08-21T08:28:17.154Z,27.11
2022-08-21T08:33:21.049Z,26.41
2022-08-21T08:38:26.294Z,25.98
2022-08-21T08:43:31.165Z,26.74
2022-08-21T08:48:36.855Z,28.37
2022-08-21T08:54:03.972Z,27.36
2022-08-21T08:59:27.701Z,26.64
2022-08-21T09:04:31.471Z,26.24
2022-08-21T09:09:52.693Z,27.00
2022-08-21T09:15:13.567Z,28.56
2022-08-21T09:20:45.364Z,27.57
2022-08-21T09:26:05.520Z,27.02
2022-08-21T09:31:17.057Z,26.73
2022-08-21T09:36:42.196Z,27.61
2022-08-21T09:41:45.164Z,29.14
2022-08-21T09:46:53.625Z,28.18
2022-08-21T09:51:59.652Z,27.63
2022-08-21T09:57:36.161Z,27.33
2022-08-21T10:02:39.405Z,27.11
2022-08-21T10:07:42.530Z,26.90
2022-08-21T10:12:59.016Z,27.74
2022-08-21T10:18:21.312Z,29.41
2022-08-21T10:23:42.633Z,28.48
2022-08-21T10:29:12.612Z,27.96
2022-08-21T10:34:53.382Z,27.67
2022-08-21T10:40:32.892Z,27.43
2022-08-21T10:46:11.369Z,27.22
2022-08-21T10:51:33.588Z,27.06
2022-08-21T10:56:41.616Z,26.99
2022-08-21T11:02:26.732Z,28.03
2022-08-21T11:07:45.035Z,29.66
2022-08-21T11:12:54.882Z,28.78
2022-08-21T11:18:27.482Z,28.23
2022-08-21T11:23:39.635Z,27.76
2022-08-21T11:29:02.178Z,27.43
2022-08-21T11:34:13.883Z,27.11
2022-08-21T11:39:26.548Z,26.91
2022-08-21T11:44:51.819Z,26.76
2022-08-21T11:50:20.603Z,26.54
2022-08-21T11:55:58.855Z,26.36
2022-08-21T12:01:31.962Z,26.09
2022-08-21T12:06:41.881Z,25.96
2022-08-21T12:11:49.201Z,28.15
2022-08-21T12:16:52.970Z,28.04
2022-08-21T12:21:58.512Z,27.19
2022-08-21T12:27:29.585Z,26.66
2022-08-21T12:32:47.642Z,26.35
2022-08-21T12:37:53.583Z,27.70
2022-08-21T12:43:00.515Z,28.87
2022-08-21T12:48:25.018Z,27.65
2022-08-21T12:53:37.208Z,26.87
2022-08-21T12:58:47.452Z,26.40
2022-08-21T13:04:00.255Z,27.35
2022-08-21T13:09:13.905Z,28.57
2022-08-21T13:14:30.221Z,27.25
2022-08-21T13:19:35.241Z,26.47
2022-08-21T13:24:42.956Z,27.65
2022-08-21T13:29:53.248Z,28.85
2022-08-21T13:34:59.807Z,27.68
2022-08-21T13:40:03.120Z,26.94
2022-08-21T13:45:15.012Z,26.37
2022-08-21T13:50:21.908Z,26.98
2022-08-21T13:55:26.086Z,28.47
2022-08-21T14:00:31.464Z,27.20
2022-08-21T14:05:38.979Z,26.33
2022-08-21T14:10:48.605Z,27.96
2022-08-21T14:16:02.351Z,28.22
2022-08-21T14:21:10.261Z,26.75
2022-08-21T14:26:13.289Z,26.73
2022-08-21T14:31:19.751Z,28.10
2022-08-21T14:36:23.523Z,26.91
2022-08-21T14:41:29.106Z,26.12
2022-08-21T14:46:33.190Z,27.85
2022-08-21T14:51:36.604Z,28.19
2022-08-21T14:56:47.643Z,26.79
2022-08-21T15:01:51.023Z,25.99
2022-08-21T15:06:54.406Z,26.62
2022-08-21T15:12:01.383Z,28.77
2022-08-21T15:17:06.772Z,28.12
2022-08-21T15:22:15.505Z,26.97
2022-08-21T15:27:22.121Z,26.20
2022-08-21T15:32:29.941Z,26.75
2022-08-21T15:37:33.455Z,28.21
2022-08-21T15:42:36.716Z,26.91
2022-08-21T15:47:44.226Z,25.93
2022-08-21T15:52:47.554Z,26.43
2022-08-21T15:57:57.247Z,27.72
2022-08-21T16:03:05.430Z,25.98
2022-08-21T16:08:08.377Z,26.20
2022-08-21T16:13:21.313Z,26.95
2022-08-21T16:18:24.529Z,25.21
2022-08-21T16:23:27.665Z,26.38
2022-08-21T16:28:32.428Z,26.52
2022-08-21T16:33:39.020Z,24.74
2022-08-21T16:38:44.324Z,25.77
2022-08-21T16:43:49.108Z,26.53
2022-08-21T16:48:52.053Z,24.93
2022-08-21T16:53:54.986Z,24.91
2022-08-21T16:58:59.251Z,26.73
2022-08-21T17:04:02.326Z,26.66
2022-08-21T17:09:05.515Z,24.87
2022-08-21T17:14:12.499Z,24.85
2022-08-21T17:19:16.462Z,26.63
2022-08-21T17:24:19.440Z,26.60
2022-08-21T17:29:27.255Z,24.83
2022-08-21T17:34:31.157Z,25.44
2022-08-21T17:39:36.157Z,27.09
2022-08-21T17:44:44.719Z,26.59
2022-08-21T17:49:47.913Z,25.10
2022-08-21T17:54:50.950Z,25.46
2022-08-21T17:59:58.343Z,27.29
2022-08-21T18:05:02.664Z,26.21
2022-08-21T18:10:08.739Z,25.03
2022-08-21T18:15:17.947Z,25.36
2022-08-21T18:20:23.126Z,27.08
2022-08-21T18:25:26.401Z,25.73
2022-08-21T18:30:29.355Z,24.45
2022-08-21T18:35:32.548Z,24.80
2022-08-21T18:40:39.021Z,26.81
2022-08-21T18:45:42.418Z,26.24
2022-08-21T18:50:47.896Z,24.70
2022-08-21T18:55:51.456Z,24.83
2022-08-21T19:00:55.670Z,26.64
2022-08-21T19:05:58.612Z,25.60
2022-08-21T19:11:02.885Z,24.23
2022-08-21T19:16:09.601Z,24.44
2022-08-21T19:21:12.632Z,26.40
2022-08-21T19:26:16.773Z,25.74
2022-08-21T19:31:41.738Z,24.28
2022-08-21T19:36:45.363Z,24.51
2022-08-21T19:41:52.961Z,25.61
2022-08-21T19:46:58.505Z,24.05
2022-08-21T19:52:02.452Z,24.00
2022-08-21T19:57:18.989Z,26.00
2022-08-21T20:02:21.961Z,25.60
2022-08-21T20:07:26.303Z,24.04
2022-08-21T20:12:30.424Z,23.01
2022-08-21T20:17:33.341Z,24.13
2022-08-21T20:22:36.723Z,25.90
2022-08-21T20:27:41.558Z,24.88
2022-08-21T20:32:44.390Z,23.53
2022-08-21T20:37:47.558Z,23.68
2022-08-21T20:43:03.944Z,25.79
2022-08-21T20:48:23.579Z,25.17
2022-08-21T20:59:10.791Z,22.54
2022-08-21T21:04:54.231Z,23.14
2022-08-21T21:09:58.904Z,25.52
2022-08-21T21:21:03.717Z,23.44
2022-08-21T21:26:48.927Z,23.77
2022-08-21T21:31:54.301Z,25.73
2022-08-21T21:37:05.751Z,24.46
2022-08-21T21:42:30.147Z,23.23
2022-08-21T21:47:43.875Z,23.67
2022-08-21T21:53:12.668Z,25.54
2022-08-21T21:58:40.201Z,24.18
2022-08-21T22:03:57.460Z,22.93
2022-08-21T22:09:18.349Z,23.34
2022-08-21T22:14:22.698Z,25.44
2022-08-21T22:19:34.930Z,24.60
2022-08-21T22:24:42.843Z,23.21
2022-08-21T22:29:51.267Z,23.42
2022-08-21T22:35:09.590Z,25.48
2022-08-21T22:40:20.294Z,24.55
2022-08-21T22:45:23.306Z,23.19
2022-08-21T22:50:27.041Z,23.41
2022-08-21T22:55:44.034Z,25.42
2022-08-21T23:01:22.631Z,24.36
2022-08-21T23:06:34.892Z,22.91
2022-08-21T23:11:40.758Z,23.29
2022-08-21T23:17:16.111Z,25.38
2022-08-21T23:22:21.808Z,24.41
2022-08-21T23:27:48.564Z,23.03
2022-08-21T23:33:21.919Z,23.39
2022-08-21T23:38:43.701Z,25.35
2022-08-21T23:44:24.710Z,24.07
2022-08-21T23:49:48.539Z,22.75
2022-08-21T23:54:55.621Z,23.28
